createdAt,value
2022-12-01T00:01:48.648Z,24.45
2022-12-01T00:04:18.668Z,24.05
2022-12-01T00:06:48.537Z,22.90
2022-12-01T00:09:33.726Z,28.23
2022-12-01T00:12:06.355Z,25.15
2022-12-01T00:14:36.301Z,26.30
2022-12-01T00:17:06.142Z,27.50
2022-12-01T00:19:36.149Z,28.67
2022-12-01T00:22:06.079Z,23.58
2022-12-01T00:24:36.212Z,27.15
2022-12-01T00:27:08.646Z,25.45
2022-12-01T00:29:38.648Z,31.17
2022-12-01T00:32:09.101Z,25.20
2022-12-01T00:34:39.134Z,27.40
2022-12-01T00:37:09.410Z,27.63
2022-12-01T00:39:39.348Z,25.90
2022-12-01T00:42:13.553Z,31.98
2022-12-01T00:44:43.847Z,29.17
2022-12-01T00:47:13.768Z,28.08
2022-12-01T00:49:45.756Z,25.85
2022-12-01T00:52:15.859Z,26.13
2022-12-01T00:54:46.092Z,29.88
2022-12-01T00:57:18.585Z,26.10
2022-12-01T00:59:49.318Z,27.40
2022-12-01T01:02:19.623Z,26.50
2022-12-01T01:04:49.547Z,23.85
2022-12-01T01:07:20.456Z,28.55
2022-12-01T01:09:50.665Z,22.92
2022-12-01T01:12:23.292Z,21.73
2022-12-01T01:14:53.271Z,24.58
2022-12-01T01:17:23.168Z,23.85
2022-12-01T01:19:52.986Z,22.85
2022-12-01T01:22:22.980Z,23.63
2022-12-01T01:24:52.838Z,27.60
2022-12-01T01:27:25.302Z,24.92
2022-12-01T01:29:55.240Z,22.60
2022-12-01T01:32:25.108Z,22.42
2022-12-01T01:34:55.121Z,23.40
2022-12-01T01:37:25.111Z,25.23
2022-12-01T01:39:54.936Z,24.10
2022-12-01T01:42:27.404Z,24.98
2022-12-01T01:44:58.939Z,27.25
2022-12-01T01:47:32.040Z,27.60
2022-12-01T01:50:06.649Z,27.13
2022-12-01T01:52:36.845Z,23.63
2022-12-01T01:55:07.479Z,27.38
2022-12-01T01:57:40.683Z,21.88
2022-12-01T02:00:16.615Z,29.77
2022-12-01T02:02:48.641Z,29.25
2022-12-01T02:05:21.081Z,30.27
2022-12-01T02:07:51.497Z,26.17
2022-12-01T02:10:25.263Z,30.30
2022-12-01T02:13:09.332Z,28.08
2022-12-01T02:15:46.198Z,25.50
2022-12-01T02:18:25.964Z,25.73
2022-12-01T02:21:23.116Z,25.23
2022-12-01T02:24:28.480Z,23.25
2022-12-01T02:27:05.089Z,27.20
2022-12-01T02:29:51.277Z,27.13
2022-12-01T02:32:29.876Z,30.73
2022-12-01T02:35:01.803Z,24.93
2022-12-01T02:37:36.303Z,24.98
2022-12-01T02:40:12.981Z,25.35
2022-12-01T02:42:54.019Z,28.42
2022-12-01T02:45:35.116Z,24.17
2022-12-01T02:48:10.720Z,27.08
2022-12-01T02:50:41.379Z,28.23
2022-12-01T02:53:13.219Z,23.10
2022-12-01T02:55:50.242Z,27.33
2022-12-01T02:58:20.121Z,23.70
2022-12-01T03:01:02.458Z,24.23
2022-12-01T03:03:50.903Z,21.08
2022-12-01T03:06:28.271Z,21.27
2022-12-01T03:09:04.064Z,19.33
2022-12-01T03:11:38.780Z,19.35
2022-12-01T03:14:17.861Z,25.08
2022-12-01T03:16:53.317Z,22.52
2022-12-01T03:19:30.707Z,22.25
2022-12-01T03:22:08.878Z,20.88
2022-12-01T03:24:39.794Z,22.52
2022-12-01T03:27:10.971Z,23.95
2022-12-01T03:29:43.388Z,21.27
2022-12-01T03:32:16.883Z,21.10
2022-12-01T03:34:51.934Z,21.15
2022-12-01T03:37:25.529Z,20.65
2022-12-01T03:40:00.264Z,20.25
2022-12-01T03:42:33.082Z,18.17
2022-12-01T03:45:04.132Z,14.68
2022-12-01T03:47:35.934Z,17.80
2022-12-01T03:50:13.392Z,22.55
2022-12-01T03:52:51.050Z,21.38
2022-12-01T03:55:24.888Z,22.77
2022-12-01T03:57:59.229Z,21.70
2022-12-01T04:00:29.321Z,22.55
2022-12-01T04:02:59.787Z,22.38
2022-12-01T04:05:32.453Z,22.77
2022-12-01T04:08:02.529Z,22.48
2022-12-01T04:10:33.163Z,22.27
2022-12-01T04:13:00.992Z,22.70
2022-12-01T04:15:31.273Z,21.73
2022-12-01T04:18:01.132Z,22.15
2022-12-01T04:20:33.707Z,18.65
2022-12-01T04:23:03.554Z,19.20
2022-12-01T04:25:33.365Z,19.98
2022-12-01T04:28:03.359Z,24.38
2022-12-01T04:30:33.179Z,18.42
2022-12-01T04:33:03.037Z,22.35
2022-12-01T04:35:35.460Z,22.25
2022-12-01T04:38:05.381Z,20.48
2022-12-01T04:40:35.240Z,19.67
2022-12-01T04:43:05.066Z,18.77
2022-12-01T04:45:34.997Z,17.15
2022-12-01T04:48:04.950Z,21.65
2022-12-01T04:50:37.455Z,18.48
2022-12-01T04:53:07.803Z,18.50
2022-12-01T04:55:40.249Z,20.90
2022-12-01T04:58:10.231Z,19.65
2022-12-01T05:00:40.524Z,18.30
2022-12-01T05:03:14.847Z,16.27
2022-12-01T05:05:47.772Z,19.50
2022-12-01T05:08:17.671Z,18.52
2022-12-01T05:10:47.640Z,18.50
2022-12-01T05:13:17.606Z,17.27
2022-12-01T05:15:47.511Z,19.83
2022-12-01T05:18:17.369Z,17.85
2022-12-01T05:20:59.313Z,18.30
2022-12-01T05:23:29.918Z,18.25
2022-12-01T05:25:59.956Z,21.50
2022-12-01T05:28:30.975Z,20.33
2022-12-01T05:31:01.167Z,18.58
2022-12-01T05:33:31.852Z,20.02
2022-12-01T05:36:04.334Z,18.90
2022-12-01T05:38:34.309Z,21.02
2022-12-01T05:41:04.236Z,18.75
2022-12-01T05:43:34.075Z,15.68
2022-12-01T05:46:03.942Z,15.95
2022-12-01T05:48:34.180Z,17.50
2022-12-01T05:51:10.872Z,17.52
2022-12-01T05:53:40.965Z,19.35
2022-12-01T05:56:11.415Z,19.98
2022-12-01T05:58:41.375Z,18.15
2022-12-01T06:01:11.232Z,18.20
2022-12-01T06:03:41.245Z,20.98
2022-12-01T06:06:13.853Z,21.08
2022-12-01T06:08:43.725Z,21.42
2022-12-01T06:11:13.773Z,22.10
2022-12-01T06:13:43.679Z,22.52
2022-12-01T06:16:13.550Z,18.17
2022-12-01T06:18:43.488Z,20.20
2022-12-01T06:21:15.916Z,21.63
2022-12-01T06:23:45.859Z,24.02
2022-12-01T06:26:15.683Z,18.40
2022-12-01T06:28:45.622Z,20.92
2022-12-01T06:31:15.964Z,19.58
2022-12-01T06:33:45.907Z,18.95
2022-12-01T06:36:18.336Z,21.50
2022-12-01T06:38:48.306Z,20.85
2022-12-01T06:41:18.123Z,21.08
2022-12-01T06:43:48.017Z,26.70
2022-12-01T06:46:18.081Z,21.63
2022-12-01T06:48:50.997Z,18.25
2022-12-01T06:51:23.568Z,18.60
2022-12-01T06:54:00.820Z,24.17
2022-12-01T06:56:33.745Z,21.73
2022-12-01T06:59:03.890Z,19.98
2022-12-01T07:01:34.122Z,21.50
2022-12-01T07:04:04.132Z,22.70
2022-12-01T07:06:36.578Z,19.08
2022-12-01T07:09:07.008Z,19.15
2022-12-01T07:11:37.066Z,18.17
2022-12-01T07:14:06.968Z,20.38
2022-12-01T07:16:36.949Z,19.98
2022-12-01T07:19:06.844Z,16.33
2022-12-01T07:21:39.323Z,19.85
2022-12-01T07:24:10.148Z,17.80
2022-12-01T07:26:40.440Z,16.65
2022-12-01T07:29:10.575Z,17.63
2022-12-01T07:31:41.503Z,18.15
2022-12-01T07:34:14.252Z,20.95
2022-12-01T07:36:46.741Z,21.02
2022-12-01T07:39:16.619Z,22.13
2022-12-01T07:41:46.493Z,20.30
2022-12-01T07:44:16.614Z,18.95
2022-12-01T07:46:46.712Z,21.35
2022-12-01T07:49:17.529Z,19.13
2022-12-01T07:51:50.245Z,20.73
2022-12-01T07:54:21.445Z,18.60
2022-12-01T07:56:51.570Z,20.00
2022-12-01T07:59:21.411Z,17.23
2022-12-01T08:01:51.293Z,20.10
2022-12-01T08:04:21.248Z,19.45
2022-12-01T08:06:53.693Z,18.58
2022-12-01T08:09:23.915Z,18.42
2022-12-01T08:11:53.804Z,17.58
2022-12-01T08:14:23.708Z,19.58
2022-12-01T08:16:53.652Z,12.52
2022-12-01T08:19:23.502Z,17.48
2022-12-01T08:21:56.015Z,19.60
2022-12-01T08:24:25.874Z,17.95
2022-12-01T08:26:55.824Z,19.13
2022-12-01T08:29:26.004Z,18.58
2022-12-01T08:31:55.906Z,19.52
2022-12-01T08:34:25.824Z,18.13
2022-12-01T08:36:58.310Z,18.88
2022-12-01T08:39:28.301Z,19.55
2022-12-01T08:41:58.227Z,15.93
2022-12-01T08:44:28.152Z,18.27
2022-12-01T08:46:58.072Z,18.23
2022-12-01T08:49:28.060Z,15.73
2022-12-01T08:52:00.487Z,18.98
2022-12-01T08:54:30.386Z,17.92
2022-12-01T08:57:00.219Z,17.35
2022-12-01T08:59:30.411Z,17.45
2022-12-01T09:02:05.350Z,15.48
2022-12-01T09:04:36.767Z,17.38
2022-12-01T09:07:09.268Z,16.30
2022-12-01T09:09:39.233Z,19.17
2022-12-01T09:12:09.689Z,16.10
2022-12-01T09:14:41.830Z,20.05
2022-12-01T09:17:12.427Z,16.40
2022-12-01T09:19:42.341Z,19.23
2022-12-01T09:22:15.041Z,16.05
2022-12-01T09:24:45.289Z,15.27
2022-12-01T09:27:15.151Z,16.55
2022-12-01T09:29:45.059Z,15.70
2022-12-01T09:32:14.890Z,15.23
2022-12-01T09:34:44.769Z,15.98
2022-12-01T09:37:17.159Z,17.23
2022-12-01T09:39:47.333Z,15.70
2022-12-01T09:42:32.276Z,13.02
2022-12-01T09:45:05.797Z,15.50
2022-12-01T09:47:37.981Z,14.48
2022-12-01T09:50:12.836Z,15.65
2022-12-01T09:52:48.047Z,14.98
2022-12-01T09:55:19.904Z,15.27
2022-12-01T09:57:50.928Z,14.60
2022-12-01T10:00:23.951Z,15.43
2022-12-01T10:02:56.598Z,18.10
2022-12-01T10:05:30.041Z,15.65
2022-12-01T10:08:04.728Z,16.98
2022-12-01T10:10:37.874Z,16.35
2022-12-01T10:13:14.484Z,17.77
2022-12-01T10:15:50.270Z,18.27
2022-12-01T10:18:27.473Z,19.00
2022-12-01T10:21:06.996Z,21.98
2022-12-01T10:26:17.774Z,17.27
2022-12-01T10:28:58.196Z,16.67
2022-12-01T10:31:34.709Z,16.27
2022-12-01T10:34:06.698Z,19.85
2022-12-01T10:36:37.190Z,17.58
2022-12-01T10:39:10.451Z,17.58
2022-12-01T10:41:41.190Z,17.33
2022-12-01T10:44:11.867Z,11.48
2022-12-01T10:46:46.624Z,12.93
2022-12-01T10:49:17.748Z,13.13
2022-12-01T10:51:56.760Z,15.63
2022-12-01T10:54:38.195Z,14.18
2022-12-01T10:57:09.678Z,15.88
2022-12-01T10:59:41.810Z,11.50
2022-12-01T11:02:19.336Z,13.80
2022-12-01T11:04:55.035Z,14.65
2022-12-01T11:07:27.048Z,20.05
2022-12-01T11:10:17.514Z,12.95
2022-12-01T11:12:49.692Z,12.35
2022-12-01T11:15:25.715Z,13.50
2022-12-01T11:18:01.293Z,11.73
2022-12-01T11:20:34.145Z,12.98
2022-12-01T11:23:29.974Z,14.50
2022-12-01T11:26:09.499Z,13.65
2022-12-01T11:28:40.069Z,12.90
2022-12-01T11:31:12.023Z,13.15
2022-12-01T11:33:47.892Z,12.25
2022-12-01T11:36:28.664Z,11.27
2022-12-01T11:39:00.535Z,13.63
2022-12-01T11:41:36.283Z,15.52
2022-12-01T11:44:22.456Z,15.50
2022-12-01T11:47:21.653Z,14.30
2022-12-01T11:49:51.144Z,10.80
2022-12-01T11:52:27.421Z,14.82
2022-12-01T11:55:10.189Z,12.40
2022-12-01T11:57:46.270Z,16.92
2022-12-01T12:00:18.070Z,16.48
2022-12-01T12:02:57.662Z,14.50
2022-12-01T12:05:42.424Z,18.05
2022-12-01T12:08:18.565Z,14.75
2022-12-01T12:10:55.547Z,13.30
2022-12-01T12:13:44.888Z,15.38
2022-12-01T12:16:21.714Z,13.35
2022-12-01T12:19:02.306Z,12.38
2022-12-01T12:21:36.213Z,13.57
2022-12-01T12:24:23.690Z,15.55
2022-12-01T12:26:57.857Z,16.63
2022-12-01T12:29:41.104Z,16.75
2022-12-01T12:32:23.534Z,16.27
2022-12-01T12:34:57.675Z,14.20
2022-12-01T12:37:34.713Z,16.50
2022-12-01T12:40:22.476Z,16.52
2022-12-01T12:43:04.377Z,20.30
2022-12-01T12:45:45.744Z,16.58
2022-12-01T12:48:27.087Z,22.45
2022-12-01T12:51:03.579Z,28.95
2022-12-01T12:53:38.111Z,21.75
2022-12-01T12:56:10.616Z,21.30
2022-12-01T12:58:44.762Z,21.42
2022-12-01T13:01:20.932Z,99.22
2022-12-01T13:03:54.693Z,70.50
2022-12-01T13:06:28.968Z,36.53
2022-12-01T13:09:02.321Z,91.00
2022-12-01T13:11:35.583Z,94.60
2022-12-01T13:14:09.423Z,63.97
2022-12-01T13:16:46.131Z,80.82
2022-12-01T13:19:18.182Z,56.40
2022-12-01T13:21:49.880Z,46.72
2022-12-01T13:24:23.526Z,20.13
2022-12-01T13:26:57.601Z,31.67
2022-12-01T13:29:28.411Z,30.35
2022-12-01T13:32:01.097Z,39.65
2022-12-01T13:34:42.952Z,26.80
2022-12-01T13:37:13.768Z,20.13
2022-12-01T13:39:44.726Z,29.02
2022-12-01T13:42:24.497Z,20.50
2022-12-01T13:44:56.048Z,23.83
2022-12-01T13:47:56.996Z,22.33
2022-12-01T13:50:56.680Z,18.15
2022-12-01T13:53:31.969Z,20.27
2022-12-01T13:56:24.281Z,20.02
2022-12-01T13:58:56.112Z,22.65
2022-12-01T14:01:47.924Z,24.20
2022-12-01T14:04:44.151Z,23.90
2022-12-01T14:07:24.513Z,20.45
2022-12-01T14:09:56.295Z,26.23
2022-12-01T14:12:31.602Z,29.35
2022-12-01T14:15:03.188Z,20.42
2022-12-01T14:17:34.850Z,17.33
2022-12-01T14:20:22.315Z,32.97
2022-12-01T14:23:07.556Z,25.02
2022-12-01T14:25:37.720Z,24.25
2022-12-01T14:28:08.823Z,24.60
2022-12-01T14:31:07.038Z,101.00
2022-12-01T14:33:49.780Z,65.18
2022-12-01T14:36:35.432Z,103.00
2022-12-01T14:39:09.768Z,135.38
2022-12-01T14:41:44.661Z,153.30
2022-12-01T14:44:19.616Z,70.45
2022-12-01T14:46:54.878Z,40.22
2022-12-01T14:49:28.412Z,25.88
2022-12-01T14:52:06.201Z,28.92
2022-12-01T14:54:49.474Z,21.67
2022-12-01T14:57:22.681Z,17.98
2022-12-01T15:00:05.384Z,42.28
2022-12-01T15:02:35.414Z,58.35
2022-12-01T15:05:10.826Z,49.95
2022-12-01T15:07:46.088Z,21.30
2022-12-01T15:10:21.288Z,14.50
2022-12-01T15:12:52.317Z,15.70
2022-12-01T15:15:24.914Z,15.90
2022-12-01T15:17:57.762Z,12.20
2022-12-01T15:20:31.228Z,15.35
2022-12-01T15:23:05.328Z,13.65
2022-12-01T15:25:37.216Z,13.88
2022-12-01T15:28:15.998Z,16.65
2022-12-01T15:30:47.381Z,14.52
2022-12-01T15:33:26.962Z,24.45
2022-12-01T15:35:57.735Z,19.92
2022-12-01T15:38:32.218Z,18.70
2022-12-01T15:41:28.404Z,18.27
2022-12-01T15:43:58.645Z,11.88
2022-12-01T15:46:34.620Z,17.00
2022-12-01T15:49:20.813Z,20.27
2022-12-01T15:51:51.769Z,63.58
2022-12-01T15:54:26.649Z,43.67
2022-12-01T15:56:58.747Z,116.13
2022-12-01T15:59:32.203Z,15.75
2022-12-01T16:02:02.601Z,28.45
2022-12-01T16:04:35.505Z,18.83
2022-12-01T16:07:07.922Z,48.95
2022-12-01T16:09:42.229Z,39.72
2022-12-01T16:12:26.639Z,52.78
2022-12-01T16:15:15.489Z,21.27
2022-12-01T16:17:48.406Z,22.45
2022-12-01T16:20:21.652Z,29.05
2022-12-01T16:22:53.764Z,24.25
2022-12-01T16:25:32.137Z,17.08
2022-12-01T16:28:02.263Z,20.55
2022-12-01T16:30:38.241Z,14.57
2022-12-01T16:33:10.075Z,13.55
2022-12-01T16:35:39.899Z,15.88
2022-12-01T16:38:16.464Z,34.00
2022-12-01T16:40:49.764Z,53.00
2022-12-01T16:43:21.208Z,39.25
2022-12-01T16:45:53.087Z,44.13
2022-12-01T16:48:23.592Z,33.38
2022-12-01T16:50:54.124Z,15.77
2022-12-01T16:53:24.360Z,19.38
2022-12-01T16:55:58.797Z,32.13
2022-12-01T16:58:29.523Z,14.80
2022-12-01T17:00:59.944Z,13.55
2022-12-01T17:03:31.165Z,14.25
2022-12-01T17:06:02.833Z,17.05
2022-12-01T17:08:33.143Z,15.70
2022-12-01T17:11:07.989Z,24.85
2022-12-01T17:13:38.603Z,18.50
2022-12-01T17:16:15.177Z,26.63
2022-12-01T17:18:46.833Z,27.55
2022-12-01T17:21:16.747Z,23.80
2022-12-01T17:23:46.650Z,27.27
2022-12-01T17:26:20.559Z,28.30
2022-12-01T17:28:50.509Z,19.13
2022-12-01T17:31:20.369Z,21.92
2022-12-01T17:33:50.653Z,51.88
2022-12-01T17:36:21.184Z,23.40
2022-12-01T17:38:51.152Z,17.45
2022-12-01T17:41:25.588Z,17.77
2022-12-01T17:43:55.481Z,16.27
2022-12-01T17:46:25.310Z,26.00
2022-12-01T17:48:55.223Z,13.13
2022-12-01T17:51:25.124Z,14.82
2022-12-01T17:53:56.036Z,18.50
2022-12-01T17:56:28.553Z,21.80
2022-12-01T17:58:58.456Z,15.30
2022-12-01T18:01:30.505Z,14.20
2022-12-01T18:04:01.351Z,12.25
2022-12-01T18:06:31.306Z,13.27
2022-12-01T18:09:02.618Z,14.40
2022-12-01T18:11:35.160Z,9.45
2022-12-01T18:14:05.100Z,17.50
2022-12-01T18:16:35.720Z,11.27
2022-12-01T18:19:05.876Z,6.38
2022-12-01T18:21:35.745Z,8.50
2022-12-01T18:24:09.025Z,7.35
2022-12-01T18:26:42.773Z,11.70
2022-12-01T18:29:16.131Z,9.43
2022-12-01T18:31:47.403Z,13.38
2022-12-01T18:34:17.418Z,22.83
2022-12-01T18:36:47.915Z,14.57
2022-12-01T18:39:17.799Z,33.00
2022-12-01T18:41:50.237Z,51.30
2022-12-01T18:44:20.263Z,28.10
2022-12-01T18:46:50.149Z,63.42
2022-12-01T18:49:20.084Z,101.15
2022-12-01T18:51:50.044Z,43.08
2022-12-01T18:54:20.196Z,39.83
2022-12-01T18:56:59.028Z,16.73
2022-12-01T18:59:29.249Z,8.00
2022-12-01T19:01:59.246Z,10.10
2022-12-01T19:04:29.187Z,7.75
2022-12-01T19:06:59.079Z,17.90
2022-12-01T19:09:29.200Z,46.08
2022-12-01T19:12:02.830Z,21.05
2022-12-01T19:14:32.993Z,26.85
2022-12-01T19:17:04.153Z,21.10
2022-12-01T19:19:37.606Z,34.00
2022-12-01T19:22:07.919Z,12.75
2022-12-01T19:24:37.871Z,25.52
2022-12-01T19:27:10.380Z,13.00
2022-12-01T19:29:40.276Z,6.07
2022-12-01T19:32:10.336Z,18.65
2022-12-01T19:34:40.283Z,16.63
2022-12-01T19:37:11.081Z,15.82
2022-12-01T19:39:41.057Z,10.05
2022-12-01T19:42:14.756Z,9.30
2022-12-01T19:44:44.710Z,13.40
2022-12-01T19:47:17.757Z,10.40
2022-12-01T19:49:51.728Z,12.88
2022-12-01T19:52:21.668Z,5.80
2022-12-01T19:54:51.785Z,12.52
2022-12-01T19:57:24.661Z,9.95
2022-12-01T19:59:54.525Z,11.23
2022-12-01T20:02:28.898Z,10.75
2022-12-01T20:04:59.356Z,10.23
2022-12-01T20:07:29.424Z,10.73
2022-12-01T20:09:59.427Z,15.13
2022-12-01T20:12:32.044Z,11.75
2022-12-01T20:15:01.963Z,9.02
2022-12-01T20:17:31.961Z,11.07
2022-12-01T20:20:03.194Z,10.85
2022-12-01T20:22:34.747Z,11.88
2022-12-01T20:25:04.710Z,10.68
2022-12-01T20:27:37.281Z,10.43
2022-12-01T20:30:08.389Z,10.82
2022-12-01T20:32:38.350Z,11.13
2022-12-01T20:35:10.157Z,13.73
2022-12-01T20:37:40.464Z,8.23
2022-12-01T20:40:11.683Z,12.07
2022-12-01T20:42:44.243Z,11.55
2022-12-01T20:45:14.233Z,11.82
2022-12-01T20:47:44.167Z,11.43
2022-12-01T20:50:14.160Z,9.77
2022-12-01T20:52:44.017Z,8.52
2022-12-01T20:55:13.922Z,9.68
2022-12-01T20:57:46.456Z,12.02
2022-12-01T21:00:17.902Z,9.63
2022-12-01T21:02:48.091Z,10.70
2022-12-01T21:05:18.119Z,11.88
2022-12-01T21:07:48.086Z,11.30
2022-12-01T21:10:20.174Z,9.27
2022-12-01T21:13:24.003Z,9.38
2022-12-01T21:16:03.137Z,7.70
2022-12-01T21:18:40.570Z,10.40
2022-12-01T21:21:23.525Z,9.25
2022-12-01T21:24:13.681Z,12.10
2022-12-01T21:26:44.960Z,9.70
2022-12-01T21:29:22.499Z,7.13
2022-12-01T21:31:55.004Z,7.50
2022-12-01T21:34:26.620Z,10.55
2022-12-01T21:36:59.143Z,9.88
2022-12-01T21:39:29.413Z,7.20
2022-12-01T21:42:03.093Z,11.13
2022-12-01T21:44:40.168Z,13.38
2022-12-01T21:47:18.754Z,9.57
2022-12-01T21:49:48.763Z,18.98
2022-12-01T21:52:21.851Z,21.45
2022-12-01T21:54:52.548Z,13.10
2022-12-01T21:57:42.395Z,16.35
2022-12-01T22:00:32.866Z,15.38
2022-12-01T22:03:18.873Z,12.02
2022-12-01T22:06:13.487Z,12.90
2022-12-01T22:08:43.865Z,9.95
2022-12-01T22:11:18.730Z,12.60
2022-12-01T22:13:50.486Z,15.55
2022-12-01T22:16:24.908Z,12.40
2022-12-01T22:18:56.132Z,9.82
2022-12-01T22:21:38.338Z,13.75
2022-12-01T22:24:22.192Z,10.95
2022-12-01T22:26:54.451Z,11.73
2022-12-01T22:29:30.131Z,9.77
2022-12-01T22:32:35.196Z,8.73
2022-12-01T22:35:21.496Z,10.25
2022-12-01T22:37:52.774Z,13.70
2022-12-01T22:40:44.064Z,12.68
2022-12-01T22:43:32.429Z,9.13
2022-12-01T22:46:23.748Z,11.23
2022-12-01T22:48:57.628Z,11.07
2022-12-01T22:51:39.027Z,10.88
2022-12-01T22:54:35.358Z,9.43
2022-12-01T22:57:08.842Z,11.05
2022-12-01T22:59:40.978Z,7.10
2022-12-01T23:02:20.509Z,7.90
2022-12-01T23:04:56.261Z,9.10
2022-12-01T23:07:31.270Z,9.23
2022-12-01T23:10:07.478Z,6.60
2022-12-01T23:12:38.553Z,7.55
2022-12-01T23:15:24.395Z,9.70
2022-12-01T23:17:54.404Z,10.77
2022-12-01T23:20:33.411Z,9.60
2022-12-01T23:23:05.469Z,9.00
2022-12-01T23:25:37.551Z,8.23
2022-12-01T23:28:10.728Z,9.13
2022-12-01T23:30:42.427Z,7.15
2022-12-01T23:33:21.822Z,6.43
2022-12-01T23:38:27.842Z,6.18
2022-12-01T23:41:01.082Z,5.50
2022-12-01T23:43:33.039Z,9.57
2022-12-01T23:46:07.679Z,8.43
2022-12-01T23:48:40.051Z,7.90
2022-12-01T23:51:18.943Z,9.70
2022-12-01T23:53:49.432Z,8.20
2022-12-01T23:56:22.651Z,8.68
2022-12-01T23:58:52.660Z,9.68
